createdAt,value
2023-04-07T00:01:55.847Z,5.40
2023-04-07T00:04:23.212Z,5.30
2023-04-07T00:06:50.366Z,5.40
2023-04-07T00:09:17.405Z,5.30
2023-04-07T00:11:44.491Z,5.30
2023-04-07T00:14:11.515Z,5.20
2023-04-07T00:16:38.613Z,5.30
2023-04-07T00:19:05.715Z,5.30
2023-04-07T00:21:32.753Z,5.30
2023-04-07T00:23:59.791Z,5.20
2023-04-07T00:26:31.364Z,5.30
2023-04-07T00:28:58.945Z,5.20
2023-04-07T00:31:26.375Z,5.20
2023-04-07T00:33:53.800Z,5.20
2023-04-07T00:36:21.202Z,5.20
2023-04-07T00:38:48.267Z,5.20
2023-04-07T00:41:15.813Z,5.20
2023-04-07T00:43:42.960Z,5.20
2023-04-07T00:46:10.087Z,5.20
2023-04-07T00:48:37.151Z,5.20
2023-04-07T00:51:04.298Z,5.20
2023-04-07T00:53:31.412Z,5.20
2023-04-07T00:55:58.608Z,5.10
2023-04-07T00:58:25.926Z,5.10
2023-04-07T01:00:56.367Z,5.10
2023-04-07T01:03:53.430Z,5.10
2023-04-07T01:06:21.931Z,5.20
2023-04-07T01:08:53.762Z,5.10
2023-04-07T01:11:28.481Z,5.10
2023-04-07T01:13:57.352Z,5.20
2023-04-07T01:16:46.529Z,5.10
2023-04-07T01:19:15.598Z,5.20
2023-04-07T01:21:46.782Z,5.20
2023-04-07T01:24:20.050Z,5.20
2023-04-07T01:26:50.373Z,5.20
2023-04-07T01:29:35.591Z,5.10
2023-04-07T01:32:03.330Z,5.10
2023-04-07T01:34:31.229Z,5.10
2023-04-07T01:36:58.703Z,5.10
2023-04-07T01:39:26.679Z,5.00
2023-04-07T01:41:53.910Z,5.10
2023-04-07T01:44:21.136Z,5.10
2023-04-07T01:46:51.038Z,5.00
2023-04-07T01:49:18.290Z,5.00
2023-04-07T01:51:49.989Z,5.10
2023-04-07T01:54:17.751Z,5.10
2023-04-07T01:56:45.122Z,5.10
2023-04-07T01:59:12.422Z,5.10
2023-04-07T02:01:39.800Z,5.10
2023-04-07T02:04:11.986Z,5.10
2023-04-07T02:06:42.412Z,5.10
2023-04-07T02:09:10.843Z,5.10
2023-04-07T02:11:37.926Z,5.10
2023-04-07T02:14:06.419Z,5.20
2023-04-07T02:16:44.485Z,5.10
2023-04-07T02:19:12.809Z,5.10
2023-04-07T02:21:39.928Z,5.10
2023-04-07T02:24:07.126Z,5.10
2023-04-07T02:26:36.735Z,5.10
2023-04-07T02:29:04.123Z,5.10
2023-04-07T02:31:31.349Z,5.20
2023-04-07T02:34:00.681Z,5.20
2023-04-07T02:36:27.801Z,5.20
2023-04-07T02:38:54.886Z,5.20
2023-04-07T02:41:22.285Z,5.20
2023-04-07T02:43:49.303Z,5.20
2023-04-07T02:46:16.876Z,5.20
2023-04-07T02:48:43.959Z,5.30
2023-04-07T02:51:11.300Z,5.30
2023-04-07T02:53:38.353Z,5.30
2023-04-07T02:56:06.489Z,5.30
2023-04-07T02:58:33.568Z,5.30
2023-04-07T03:01:00.773Z,5.30
2023-04-07T03:03:31.394Z,5.30
2023-04-07T03:06:15.687Z,5.40
2023-04-07T03:08:57.633Z,5.40
2023-04-07T03:11:24.698Z,5.40
2023-04-07T03:13:51.978Z,5.40
2023-04-07T03:16:19.409Z,5.40
2023-04-07T03:18:58.826Z,5.40
2023-04-07T03:21:26.582Z,5.40
2023-04-07T03:23:53.796Z,5.40
2023-04-07T03:26:21.707Z,5.40
2023-04-07T03:28:49.997Z,5.40
2023-04-07T03:31:17.912Z,5.40
2023-04-07T03:33:45.740Z,5.30
2023-04-07T03:36:13.891Z,5.30
2023-04-07T03:38:41.420Z,5.30
2023-04-07T03:41:08.533Z,5.30
2023-04-07T03:43:36.030Z,5.30
2023-04-07T03:46:03.139Z,5.30
2023-04-07T03:48:31.435Z,5.20
2023-04-07T03:51:03.875Z,5.30
2023-04-07T03:53:32.341Z,5.30
2023-04-07T03:56:03.013Z,5.30
2023-04-07T03:58:42.835Z,5.20
2023-04-07T04:01:14.156Z,5.20
2023-04-07T04:03:44.042Z,5.20
2023-04-07T04:06:23.097Z,5.20
2023-04-07T04:08:51.173Z,5.10
2023-04-07T04:11:19.320Z,5.10
2023-04-07T04:13:56.190Z,5.10
2023-04-07T04:16:23.755Z,5.10
2023-04-07T04:18:52.839Z,5.10
2023-04-07T04:21:21.231Z,5.10
2023-04-07T04:23:48.359Z,5.10
2023-04-07T04:26:17.528Z,5.10
2023-04-07T04:28:45.818Z,5.10
2023-04-07T04:31:14.163Z,5.10
2023-04-07T04:33:44.223Z,5.10
2023-04-07T04:36:11.693Z,5.10
2023-04-07T04:38:39.207Z,5.10
2023-04-07T04:41:14.672Z,5.10
2023-04-07T04:43:42.614Z,5.10
2023-04-07T04:46:12.062Z,5.10
2023-04-07T04:48:43.524Z,5.10
2023-04-07T04:51:10.690Z,5.00
2023-04-07T04:53:41.101Z,5.00
2023-04-07T04:56:08.306Z,5.00
2023-04-07T04:58:47.134Z,5.00
2023-04-07T05:01:41.471Z,5.00
2023-04-07T05:04:12.579Z,5.00
2023-04-07T05:06:46.232Z,5.00
2023-04-07T05:09:15.726Z,5.00
2023-04-07T05:11:45.549Z,5.00
2023-04-07T05:14:12.657Z,4.90
2023-04-07T05:16:44.320Z,4.90
2023-04-07T05:19:17.132Z,4.90
2023-04-07T05:21:45.606Z,4.90
2023-04-07T05:24:12.960Z,4.90
2023-04-07T05:26:40.018Z,4.90
2023-04-07T05:29:07.052Z,4.80
2023-04-07T05:31:37.313Z,4.80
2023-04-07T05:34:08.784Z,4.90
2023-04-07T05:36:42.878Z,4.80
2023-04-07T05:39:10.161Z,4.90
2023-04-07T05:41:37.543Z,4.90
2023-04-07T05:44:06.358Z,4.90
2023-04-07T05:46:37.249Z,4.90
2023-04-07T05:49:18.401Z,4.90
2023-04-07T05:51:49.433Z,4.90
2023-04-07T05:54:16.881Z,5.00
2023-04-07T05:56:44.265Z,5.00
2023-04-07T05:59:11.351Z,5.00
2023-04-07T06:01:39.526Z,5.00
2023-04-07T06:04:06.930Z,5.10
2023-04-07T06:06:34.056Z,5.10
2023-04-07T06:09:01.860Z,5.20
2023-04-07T06:11:28.985Z,5.20
2023-04-07T06:13:56.054Z,5.20
2023-04-07T06:16:24.344Z,5.20
2023-04-07T06:18:52.227Z,5.20
2023-04-07T06:21:19.299Z,5.30
2023-04-07T06:23:46.390Z,5.30
2023-04-07T06:26:13.488Z,5.30
2023-04-07T06:28:40.631Z,5.30
2023-04-07T06:31:09.600Z,5.30
2023-04-07T06:33:37.933Z,5.30
2023-04-07T06:36:05.153Z,5.30
2023-04-07T06:38:32.232Z,5.40
2023-04-07T06:40:59.380Z,5.40
2023-04-07T06:43:26.397Z,5.50
2023-04-07T06:45:56.984Z,5.60
2023-04-07T06:48:24.050Z,5.70
2023-04-07T06:50:51.142Z,5.70
2023-04-07T06:53:18.220Z,5.80
2023-04-07T06:55:45.459Z,5.80
2023-04-07T06:58:12.598Z,5.80
2023-04-07T07:00:39.733Z,5.80
2023-04-07T07:03:06.924Z,5.80
2023-04-07T07:05:36.257Z,5.90
2023-04-07T07:08:03.377Z,5.90
2023-04-07T07:10:30.580Z,5.90
2023-04-07T07:12:57.742Z,6.00
2023-04-07T07:15:25.977Z,6.10
2023-04-07T07:17:53.096Z,6.10
2023-04-07T07:20:20.457Z,6.10
2023-04-07T07:22:47.565Z,6.20
2023-04-07T07:25:14.642Z,6.20
2023-04-07T07:27:41.669Z,6.30
2023-04-07T07:30:08.965Z,6.30
2023-04-07T07:32:36.158Z,6.40
2023-04-07T07:35:03.305Z,6.50
2023-04-07T07:37:30.599Z,6.50
2023-04-07T07:39:57.639Z,6.60
2023-04-07T07:42:24.682Z,6.60
2023-04-07T07:44:51.718Z,6.70
2023-04-07T07:47:18.848Z,6.80
2023-04-07T07:49:46.044Z,6.80
2023-04-07T07:52:13.105Z,6.80
2023-04-07T07:54:40.279Z,6.80
2023-04-07T07:57:07.324Z,6.80
2023-04-07T07:59:34.392Z,6.80
2023-04-07T08:02:01.508Z,6.80
2023-04-07T08:04:28.684Z,6.80
2023-04-07T08:06:56.034Z,6.80
2023-04-07T08:09:23.085Z,6.80
2023-04-07T08:11:51.113Z,6.80
2023-04-07T08:14:18.215Z,6.80
2023-04-07T08:16:45.391Z,6.90
2023-04-07T08:19:13.444Z,6.90
2023-04-07T08:21:40.662Z,6.90
2023-04-07T08:24:07.707Z,7.00
2023-04-07T08:26:34.770Z,7.00
2023-04-07T08:29:01.908Z,7.10
2023-04-07T08:31:28.990Z,7.10
2023-04-07T08:33:58.286Z,7.20
2023-04-07T08:36:26.212Z,7.30
2023-04-07T08:38:53.479Z,7.40
2023-04-07T08:41:22.430Z,7.40
2023-04-07T08:43:49.727Z,7.60
2023-04-07T08:46:17.148Z,7.60
2023-04-07T08:48:44.494Z,7.70
2023-04-07T08:51:11.646Z,7.80
2023-04-07T08:53:43.889Z,7.70
2023-04-07T08:56:13.985Z,7.80
2023-04-07T08:58:41.114Z,7.80
2023-04-07T09:01:08.347Z,7.90
2023-04-07T09:03:35.580Z,8.10
2023-04-07T09:06:02.786Z,8.20
2023-04-07T09:08:29.866Z,8.20
2023-04-07T09:10:57.098Z,8.40
2023-04-07T09:13:24.469Z,8.40
2023-04-07T09:15:51.726Z,8.50
2023-04-07T09:18:19.148Z,8.60
2023-04-07T09:20:56.191Z,8.70
2023-04-07T09:23:33.319Z,8.80
2023-04-07T09:26:01.262Z,8.80
2023-04-07T09:28:41.246Z,8.90
2023-04-07T09:31:08.287Z,8.90
2023-04-07T09:33:36.775Z,8.90
2023-04-07T09:36:05.088Z,9.00
2023-04-07T09:38:32.685Z,9.10
2023-04-07T09:41:26.461Z,9.20
2023-04-07T09:43:56.229Z,9.30
2023-04-07T09:46:24.915Z,9.30
2023-04-07T09:49:00.716Z,9.40
2023-04-07T09:51:28.954Z,9.40
2023-04-07T09:53:55.997Z,9.50
2023-04-07T09:56:23.917Z,9.70
2023-04-07T09:58:54.131Z,9.80
2023-04-07T10:01:21.439Z,9.90
2023-04-07T10:03:49.180Z,10.00
2023-04-07T10:06:16.657Z,10.20
2023-04-07T10:08:43.813Z,10.10
2023-04-07T10:11:10.884Z,10.00
2023-04-07T10:13:39.406Z,10.00
2023-04-07T10:16:07.075Z,9.90
2023-04-07T10:18:35.497Z,9.70
2023-04-07T10:21:07.853Z,9.70
2023-04-07T10:23:49.304Z,9.60
2023-04-07T10:26:18.089Z,9.80
2023-04-07T10:28:46.769Z,9.90
2023-04-07T10:31:13.843Z,10.10
2023-04-07T10:33:44.688Z,10.30
2023-04-07T10:36:12.362Z,10.50
2023-04-07T10:38:39.380Z,10.70
2023-04-07T10:41:25.328Z,10.80
2023-04-07T10:43:52.662Z,11.00
2023-04-07T10:46:19.773Z,11.20
2023-04-07T10:49:06.928Z,11.30
2023-04-07T10:51:33.988Z,11.50
2023-04-07T10:54:16.981Z,11.40
2023-04-07T10:56:59.277Z,11.30
2023-04-07T10:59:27.815Z,11.30
2023-04-07T11:02:13.827Z,11.10
2023-04-07T11:04:45.422Z,11.00
2023-04-07T11:07:19.822Z,11.00
2023-04-07T11:09:46.844Z,10.90
2023-04-07T11:12:23.719Z,11.00
2023-04-07T11:14:50.769Z,10.90
2023-04-07T11:17:17.835Z,10.80
2023-04-07T11:19:54.118Z,10.80
2023-04-07T11:24:51.121Z,10.80
2023-04-07T11:27:18.183Z,10.90
2023-04-07T11:29:45.622Z,10.90
2023-04-07T11:32:13.115Z,11.00
2023-04-07T11:34:40.380Z,11.00
2023-04-07T11:37:20.929Z,11.00
2023-04-07T11:39:54.418Z,11.10
2023-04-07T11:42:37.458Z,11.20
2023-04-07T11:45:06.009Z,11.60
2023-04-07T11:47:36.006Z,11.80
2023-04-07T11:50:03.167Z,11.90
2023-04-07T11:52:40.467Z,11.90
2023-04-07T11:55:07.817Z,11.90
2023-04-07T11:57:37.495Z,11.90
2023-04-07T12:00:08.178Z,11.90
2023-04-07T12:02:37.749Z,11.80
2023-04-07T12:05:05.464Z,11.70
2023-04-07T12:07:33.847Z,11.80
2023-04-07T12:10:17.674Z,11.70
2023-04-07T12:12:45.382Z,11.50
2023-04-07T12:15:13.571Z,11.60
2023-04-07T12:17:44.367Z,11.80
2023-04-07T12:20:11.604Z,12.00
2023-04-07T12:22:38.672Z,12.00
2023-04-07T12:25:06.141Z,12.00
2023-04-07T12:27:42.771Z,11.90
2023-04-07T12:30:10.997Z,11.80
2023-04-07T12:32:38.372Z,11.70
2023-04-07T12:35:06.044Z,11.70
2023-04-07T12:37:33.207Z,11.70
2023-04-07T12:40:00.519Z,11.60
2023-04-07T12:42:27.944Z,11.60
2023-04-07T12:44:55.009Z,11.60
2023-04-07T12:47:22.595Z,11.60
2023-04-07T12:49:51.063Z,11.60
2023-04-07T12:52:18.118Z,11.50
2023-04-07T12:54:45.420Z,11.50
2023-04-07T12:57:12.633Z,11.40
2023-04-07T12:59:39.749Z,11.40
2023-04-07T13:02:06.928Z,11.40
2023-04-07T13:04:35.193Z,11.30
2023-04-07T13:07:03.130Z,11.30
2023-04-07T13:09:30.236Z,11.20
2023-04-07T13:11:58.562Z,11.20
2023-04-07T13:14:25.697Z,11.20
2023-04-07T13:16:52.764Z,11.10
2023-04-07T13:19:19.850Z,11.10
2023-04-07T13:21:48.468Z,11.00
2023-04-07T13:24:15.815Z,11.00
2023-04-07T13:26:43.079Z,11.00
2023-04-07T13:29:10.371Z,11.00
2023-04-07T13:31:37.528Z,11.00
2023-04-07T13:34:04.620Z,11.00
2023-04-07T13:36:31.635Z,11.10
2023-04-07T13:38:58.728Z,11.10
2023-04-07T13:41:26.594Z,11.10
2023-04-07T13:43:53.738Z,11.20
2023-04-07T13:46:28.605Z,11.10
2023-04-07T13:48:56.670Z,11.10
2023-04-07T13:51:23.689Z,11.20
2023-04-07T13:53:50.907Z,11.20
2023-04-07T13:56:18.206Z,11.20
2023-04-07T13:58:45.271Z,11.20
2023-04-07T14:01:13.345Z,11.20
2023-04-07T14:03:41.474Z,11.20
2023-04-07T14:06:08.632Z,11.20
2023-04-07T14:08:35.673Z,11.20
2023-04-07T14:11:02.763Z,11.20
2023-04-07T14:13:29.825Z,11.20
2023-04-07T14:15:56.905Z,11.30
2023-04-07T14:18:24.561Z,11.20
2023-04-07T14:20:51.660Z,11.20
2023-04-07T14:23:30.107Z,11.20
2023-04-07T14:26:03.473Z,11.30
2023-04-07T14:28:30.544Z,11.20
2023-04-07T14:30:57.666Z,11.20
2023-04-07T14:33:24.752Z,11.20
2023-04-07T14:35:52.443Z,11.20
2023-04-07T14:38:24.096Z,11.20
2023-04-07T14:40:54.321Z,11.20
2023-04-07T14:43:22.428Z,11.20
2023-04-07T14:45:49.483Z,11.20
2023-04-07T14:48:17.496Z,11.20
2023-04-07T14:50:44.556Z,11.10
2023-04-07T14:53:11.679Z,11.10
2023-04-07T14:55:38.771Z,11.10
2023-04-07T14:58:05.788Z,11.00
2023-04-07T15:00:32.840Z,11.00
2023-04-07T15:03:00.539Z,11.00
2023-04-07T15:05:29.193Z,11.00
2023-04-07T15:07:56.972Z,10.90
2023-04-07T15:10:24.031Z,10.90
2023-04-07T15:12:51.056Z,10.80
2023-04-07T15:15:18.489Z,10.80
2023-04-07T15:17:45.782Z,10.80
2023-04-07T15:20:13.384Z,10.80
2023-04-07T15:22:40.647Z,10.80
2023-04-07T15:25:08.470Z,10.90
2023-04-07T15:27:35.814Z,10.90
2023-04-07T15:30:03.165Z,10.90
2023-04-07T15:32:30.693Z,10.80
2023-04-07T15:34:57.762Z,10.80
2023-04-07T15:37:25.267Z,10.80
2023-04-07T15:39:52.461Z,10.80
2023-04-07T15:42:19.602Z,10.80
2023-04-07T15:44:46.787Z,10.80
2023-04-07T15:47:13.835Z,10.80
2023-04-07T15:49:42.131Z,10.70
2023-04-07T15:52:09.371Z,10.80
2023-04-07T15:54:36.475Z,10.80
2023-04-07T15:57:03.594Z,10.70
2023-04-07T15:59:30.969Z,10.70
2023-04-07T16:01:58.441Z,10.80
2023-04-07T16:04:25.661Z,10.80
2023-04-07T16:06:53.799Z,10.70
2023-04-07T16:09:20.875Z,10.80
2023-04-07T16:11:47.933Z,10.70
2023-04-07T16:14:15.054Z,10.70
2023-04-07T16:16:43.654Z,10.70
2023-04-07T16:19:10.805Z,10.70
2023-04-07T16:21:39.455Z,10.70
2023-04-07T16:24:06.619Z,10.70
2023-04-07T16:26:33.818Z,10.60
2023-04-07T16:29:00.835Z,10.60
2023-04-07T16:31:27.941Z,10.60
2023-04-07T16:33:55.112Z,10.50
2023-04-07T16:36:22.200Z,10.50
2023-04-07T16:38:50.969Z,10.50
2023-04-07T16:41:18.133Z,10.50
2023-04-07T16:43:45.380Z,10.50
2023-04-07T16:46:12.460Z,10.50
2023-04-07T16:48:39.537Z,10.40
2023-04-07T16:51:06.617Z,10.40
2023-04-07T16:53:33.714Z,10.30
2023-04-07T16:56:00.863Z,10.30
2023-04-07T16:58:27.952Z,10.20
2023-04-07T17:00:55.067Z,10.20
2023-04-07T17:03:22.288Z,10.20
2023-04-07T17:05:49.518Z,10.20
2023-04-07T17:08:16.636Z,10.10
2023-04-07T17:10:43.727Z,10.10
2023-04-07T17:13:10.855Z,10.10
2023-04-07T17:15:38.372Z,10.10
2023-04-07T17:18:05.651Z,10.10
2023-04-07T17:20:32.920Z,10.00
2023-04-07T17:22:59.977Z,10.00
2023-04-07T17:25:27.074Z,10.00
2023-04-07T17:27:55.131Z,10.00
2023-04-07T17:30:22.455Z,9.90
2023-04-07T17:32:50.690Z,9.90
2023-04-07T17:35:18.019Z,9.90
2023-04-07T17:37:45.165Z,9.90
2023-04-07T17:40:12.316Z,9.80
2023-04-07T17:42:39.403Z,9.80
2023-04-07T17:45:08.108Z,9.80
2023-04-07T17:47:35.395Z,9.70
2023-04-07T17:50:03.083Z,9.70
2023-04-07T17:52:30.502Z,9.70
2023-04-07T17:54:57.814Z,9.60
2023-04-07T17:57:24.899Z,9.70
2023-04-07T17:59:52.139Z,9.60
2023-04-07T18:02:19.319Z,9.60
2023-04-07T18:04:46.625Z,9.60
2023-04-07T18:07:13.905Z,9.60
2023-04-07T18:09:42.758Z,9.50
2023-04-07T18:12:09.892Z,9.50
2023-04-07T18:14:37.401Z,9.50
2023-04-07T18:17:04.475Z,9.50
2023-04-07T18:19:33.068Z,9.50
2023-04-07T18:22:00.893Z,9.50
2023-04-07T18:24:28.019Z,9.50
2023-04-07T18:26:55.664Z,9.50
2023-04-07T18:29:22.747Z,9.50
2023-04-07T18:31:49.870Z,9.40
2023-04-07T18:34:16.944Z,9.40
2023-04-07T18:36:44.185Z,9.40
2023-04-07T18:39:11.289Z,9.40
2023-04-07T18:41:38.358Z,9.40
2023-04-07T18:44:05.465Z,9.40
2023-04-07T18:46:32.574Z,9.40
2023-04-07T18:49:00.045Z,9.40
2023-04-07T18:51:27.706Z,9.30
2023-04-07T18:53:54.751Z,9.30
2023-04-07T18:56:22.218Z,9.30
2023-04-07T18:58:51.160Z,9.30
2023-04-07T19:01:18.496Z,9.30
2023-04-07T19:03:46.096Z,9.30
2023-04-07T19:06:14.313Z,9.30
2023-04-07T19:08:41.525Z,9.30
2023-04-07T19:11:10.585Z,9.20
2023-04-07T19:13:37.638Z,9.30
2023-04-07T19:16:05.165Z,9.20
2023-04-07T19:18:32.228Z,9.20
2023-04-07T19:20:59.356Z,9.20
2023-04-07T19:23:27.013Z,9.20
2023-04-07T19:25:54.346Z,9.20
2023-04-07T19:28:21.531Z,9.20
2023-04-07T19:30:48.616Z,9.20
2023-04-07T19:33:16.169Z,9.20
2023-04-07T19:35:43.307Z,9.10
2023-04-07T19:38:10.346Z,9.10
2023-04-07T19:40:37.434Z,9.10
2023-04-07T19:43:04.588Z,9.10
2023-04-07T19:45:31.727Z,9.10
2023-04-07T19:47:59.906Z,9.00
2023-04-07T19:50:28.250Z,9.10
2023-04-07T19:52:55.281Z,9.00
2023-04-07T19:55:22.401Z,9.00
2023-04-07T19:57:49.698Z,9.00
2023-04-07T20:00:17.039Z,9.00
2023-04-07T20:02:50.395Z,9.00
2023-04-07T20:05:18.102Z,9.00
2023-04-07T20:07:45.731Z,9.00
2023-04-07T20:10:12.786Z,8.90
2023-04-07T20:12:39.948Z,8.90
2023-04-07T20:15:07.866Z,8.90
2023-04-07T20:17:36.777Z,8.90
2023-04-07T20:20:04.657Z,8.80
2023-04-07T20:22:32.708Z,8.80
2023-04-07T20:24:59.860Z,8.80
2023-04-07T20:27:27.085Z,8.80
2023-04-07T20:29:54.168Z,8.80
2023-04-07T20:32:21.271Z,8.80
2023-04-07T20:34:51.447Z,8.80
2023-04-07T20:37:21.096Z,8.80
2023-04-07T20:39:48.841Z,8.70
2023-04-07T20:42:16.031Z,8.70
2023-04-07T20:44:43.087Z,8.70
2023-04-07T20:47:11.527Z,8.70
2023-04-07T20:49:39.590Z,8.60
2023-04-07T20:52:06.834Z,8.60
2023-04-07T20:54:34.673Z,8.60
2023-04-07T20:57:02.169Z,8.60
2023-04-07T20:59:30.104Z,8.50
2023-04-07T21:01:57.378Z,8.50
2023-04-07T21:04:24.762Z,8.40
2023-04-07T21:06:51.899Z,8.40
2023-04-07T21:09:19.912Z,8.30
2023-04-07T21:11:47.030Z,8.30
2023-04-07T21:14:14.164Z,8.30
2023-04-07T21:16:41.204Z,8.20
2023-04-07T21:19:08.299Z,8.20
2023-04-07T21:21:35.347Z,8.10
2023-04-07T21:24:02.455Z,8.10
2023-04-07T21:26:29.570Z,8.00
2023-04-07T21:28:56.626Z,8.00
2023-04-07T21:31:23.928Z,8.00
2023-04-07T21:33:51.442Z,8.00
2023-04-07T21:36:18.617Z,7.90
2023-04-07T21:38:45.794Z,7.90
2023-04-07T21:41:12.908Z,7.80
2023-04-07T21:43:39.988Z,7.80
2023-04-07T21:46:08.933Z,7.80
2023-04-07T21:48:36.118Z,7.70
2023-04-07T21:51:03.306Z,7.70
2023-04-07T21:53:30.438Z,7.60
2023-04-07T21:55:58.492Z,7.60
2023-04-07T21:58:25.677Z,7.50
2023-04-07T22:00:53.146Z,7.50
2023-04-07T22:03:20.333Z,7.40
2023-04-07T22:05:47.562Z,7.40
2023-04-07T22:08:14.706Z,7.40
2023-04-07T22:10:41.757Z,7.30
2023-04-07T22:13:09.017Z,7.30
2023-04-07T22:15:37.058Z,7.20
2023-04-07T22:18:04.841Z,7.10
2023-04-07T22:20:32.005Z,7.10
2023-04-07T22:22:59.130Z,7.10
2023-04-07T22:25:26.201Z,7.10
2023-04-07T22:27:53.274Z,6.90
2023-04-07T22:30:20.344Z,6.90
2023-04-07T22:32:48.202Z,6.90
2023-04-07T22:35:15.609Z,6.90
2023-04-07T22:37:42.647Z,6.90
2023-04-07T22:40:09.907Z,6.80
2023-04-07T22:42:37.277Z,6.80
2023-04-07T22:45:04.600Z,6.70
2023-04-07T22:47:31.671Z,6.70
2023-04-07T22:49:58.837Z,6.70
2023-04-07T22:52:26.014Z,6.60
2023-04-07T22:54:53.114Z,6.60
2023-04-07T22:57:20.459Z,6.50
2023-04-07T22:59:47.500Z,6.50
2023-04-07T23:02:14.597Z,6.50
2023-04-07T23:04:41.812Z,6.40
2023-04-07T23:07:08.843Z,6.40
2023-04-07T23:09:36.108Z,6.40
2023-04-07T23:12:03.190Z,6.30
2023-04-07T23:14:30.266Z,6.30
2023-04-07T23:16:57.712Z,6.30
2023-04-07T23:19:24.879Z,6.20
2023-04-07T23:21:52.281Z,6.20
2023-04-07T23:24:19.376Z,6.20
2023-04-07T23:26:46.426Z,6.10
2023-04-07T23:29:13.546Z,6.10
2023-04-07T23:31:40.680Z,6.10
2023-04-07T23:34:07.844Z,6.10
2023-04-07T23:36:35.995Z,6.00
2023-04-07T23:39:03.783Z,6.00
2023-04-07T23:41:30.822Z,6.00
2023-04-07T23:43:57.885Z,6.00
2023-04-07T23:46:25.166Z,6.00
2023-04-07T23:48:52.394Z,6.00
2023-04-07T23:51:19.701Z,6.00
2023-04-07T23:53:46.880Z,6.00
2023-04-07T23:56:14.000Z,6.00
2023-04-07T23:58:41.189Z,6.00
